createdAt,value
2023-03-05T00:02:07.101Z,16.55
2023-03-05T00:05:09.344Z,16.33
2023-03-05T00:08:24.373Z,13.30
2023-03-05T00:11:39.382Z,13.43
2023-03-05T00:14:54.415Z,13.23
2023-03-05T00:18:09.328Z,14.07
2023-03-05T00:21:23.699Z,20.03
2023-03-05T00:24:32.406Z,15.63
2023-03-05T00:27:47.365Z,14.68
2023-03-05T00:30:49.275Z,13.98
2023-03-05T00:34:08.318Z,18.62
2023-03-05T00:37:17.418Z,12.33
2023-03-05T00:40:26.408Z,13.27
2023-03-05T00:43:41.342Z,14.10
2023-03-05T00:46:49.475Z,14.55
2023-03-05T00:49:58.177Z,15.30
2023-03-05T00:53:13.381Z,14.47
2023-03-05T00:56:29.383Z,14.63
2023-03-05T00:59:31.701Z,12.73
2023-03-05T01:02:46.404Z,11.65
2023-03-05T01:05:55.194Z,13.10
2023-03-05T01:09:03.345Z,11.43
2023-03-05T01:12:18.445Z,15.30
2023-03-05T01:15:27.226Z,13.65
2023-03-05T01:18:44.373Z,18.67
2023-03-05T01:21:46.176Z,15.43
2023-03-05T01:25:01.379Z,15.33
2023-03-05T01:28:16.309Z,17.03
2023-03-05T01:31:25.364Z,15.88
2023-03-05T01:34:40.357Z,15.13
2023-03-05T01:37:42.222Z,13.02
2023-03-05T01:40:57.478Z,17.07
2023-03-05T01:43:59.553Z,17.63
2023-03-05T01:47:14.350Z,11.73
2023-03-05T01:50:19.898Z,14.05
2023-03-05T01:53:34.341Z,18.10
2023-03-05T01:56:37.928Z,13.60
2023-03-05T01:59:57.385Z,13.37
2023-03-05T02:03:16.362Z,17.80
2023-03-05T02:06:25.108Z,12.75
2023-03-05T02:09:34.373Z,15.32
2023-03-05T02:12:43.161Z,15.30
2023-03-05T02:15:52.386Z,15.80
2023-03-05T02:19:17.365Z,13.73
2023-03-05T02:22:26.077Z,14.07
2023-03-05T02:25:40.442Z,16.00
2023-03-05T02:28:54.370Z,12.87
2023-03-05T02:32:04.107Z,13.10
2023-03-05T02:35:13.357Z,15.10
2023-03-05T02:38:28.396Z,15.52
2023-03-05T02:41:30.184Z,14.75
2023-03-05T02:44:45.378Z,11.67
2023-03-05T02:47:47.271Z,12.77
2023-03-05T02:51:03.365Z,16.23
2023-03-05T02:54:05.482Z,15.18
2023-03-05T02:57:20.412Z,15.30
2023-03-05T03:00:29.417Z,14.50
2023-03-05T03:03:38.742Z,17.53
2023-03-05T03:06:47.442Z,15.75
2023-03-05T03:10:02.413Z,13.82
2023-03-05T03:13:10.373Z,14.93
2023-03-05T03:16:25.444Z,15.70
2023-03-05T03:19:33.361Z,13.43
2023-03-05T03:22:43.770Z,11.95
2023-03-05T03:25:52.353Z,15.25
2023-03-05T03:29:01.227Z,10.95
2023-03-05T03:32:09.489Z,15.97
2023-03-05T03:35:25.459Z,13.77
2023-03-05T03:38:27.578Z,13.50
2023-03-05T03:41:44.390Z,12.75
2023-03-05T03:44:53.425Z,15.20
2023-03-05T03:48:08.429Z,10.83
2023-03-05T03:51:17.381Z,14.50
2023-03-05T03:54:26.070Z,13.32
2023-03-05T03:57:36.427Z,10.30
2023-03-05T04:00:45.133Z,13.62
2023-03-05T04:03:53.582Z,16.33
2023-03-05T04:07:08.456Z,13.57
2023-03-05T04:10:24.413Z,14.48
2023-03-05T04:13:33.310Z,10.57
2023-03-05T04:16:48.472Z,13.27
2023-03-05T04:19:57.068Z,16.77
2023-03-05T04:26:46.080Z,11.57
2023-03-05T04:30:00.451Z,12.50
2023-03-05T04:33:09.226Z,14.48
2023-03-05T04:36:17.449Z,12.30
2023-03-05T04:39:32.449Z,11.80
2023-03-05T04:42:41.966Z,13.55
2023-03-05T04:45:51.409Z,14.43
2023-03-05T04:49:00.195Z,15.48
2023-03-05T04:52:08.506Z,13.10
2023-03-05T04:55:24.428Z,15.03
2023-03-05T04:58:26.562Z,12.77
2023-03-05T05:01:41.469Z,12.65
2023-03-05T05:04:43.387Z,13.68
2023-03-05T05:08:05.439Z,14.87
2023-03-05T05:11:14.749Z,13.73
2023-03-05T05:14:29.437Z,14.85
2023-03-05T05:17:44.831Z,13.60
2023-03-05T05:20:53.435Z,12.82
2023-03-05T05:24:08.427Z,21.47
2023-03-05T05:27:10.578Z,14.90
2023-03-05T05:30:25.433Z,13.15
2023-03-05T05:33:34.534Z,16.80
2023-03-05T05:36:49.457Z,16.62
2023-03-05T05:39:58.222Z,14.47
2023-03-05T05:43:15.445Z,16.40
2023-03-05T05:46:25.485Z,14.52
2023-03-05T05:49:34.218Z,11.80
2023-03-05T05:52:49.444Z,15.57
2023-03-05T05:55:52.290Z,12.73
2023-03-05T05:59:07.465Z,11.30
2023-03-05T06:02:09.348Z,17.37
2023-03-05T06:05:24.464Z,15.27
2023-03-05T06:08:26.233Z,13.88
2023-03-05T06:11:41.478Z,17.80
2023-03-05T06:14:49.481Z,13.17
2023-03-05T06:18:04.786Z,27.73
2023-03-05T06:21:18.459Z,14.57
2023-03-05T06:24:33.436Z,17.15
2023-03-05T06:27:44.650Z,15.33
2023-03-05T06:31:09.527Z,14.70
2023-03-05T06:34:18.474Z,14.68
2023-03-05T06:37:33.687Z,19.55
2023-03-05T06:40:38.414Z,14.85
2023-03-05T06:43:55.543Z,16.67
2023-03-05T06:47:04.456Z,21.47
2023-03-05T06:50:13.227Z,18.77
2023-03-05T06:53:21.512Z,14.95
2023-03-05T06:56:30.323Z,18.27
2023-03-05T06:59:38.455Z,15.63
2023-03-05T07:02:53.501Z,13.43
2023-03-05T07:05:55.398Z,15.23
2023-03-05T07:09:13.498Z,17.50
2023-03-05T07:12:15.415Z,15.93
2023-03-05T07:15:30.439Z,15.57
2023-03-05T07:18:38.937Z,17.40
2023-03-05T07:21:53.461Z,15.48
2023-03-05T07:25:02.217Z,15.52
2023-03-05T07:28:17.486Z,20.70
2023-03-05T07:31:21.894Z,15.40
2023-03-05T07:34:36.484Z,16.83
2023-03-05T07:37:51.565Z,16.95
2023-03-05T07:40:53.662Z,16.55
2023-03-05T07:44:08.509Z,15.27
2023-03-05T07:47:16.696Z,15.43
2023-03-05T07:50:31.545Z,15.17
2023-03-05T07:53:33.500Z,14.32
2023-03-05T07:56:48.542Z,13.25
2023-03-05T07:59:57.859Z,21.37
2023-03-05T08:03:06.501Z,16.43
2023-03-05T08:06:21.503Z,14.83
2023-03-05T08:09:37.541Z,12.80
2023-03-05T08:12:46.155Z,18.02
2023-03-05T08:16:00.599Z,15.95
2023-03-05T08:19:15.838Z,14.80
2023-03-05T08:22:24.503Z,14.53
2023-03-05T08:25:39.518Z,16.60
2023-03-05T08:28:41.573Z,14.15
2023-03-05T08:31:57.635Z,16.05
2023-03-05T08:35:06.823Z,18.40
2023-03-05T08:38:15.502Z,16.77
2023-03-05T08:41:24.048Z,18.75
2023-03-05T08:44:32.553Z,13.73
2023-03-05T08:47:41.173Z,14.55
2023-03-05T08:50:49.508Z,21.27
2023-03-05T08:53:58.841Z,14.43
2023-03-05T08:57:13.539Z,16.50
2023-03-05T09:00:15.869Z,16.48
2023-03-05T09:03:30.553Z,19.60
2023-03-05T09:06:39.273Z,13.30
2023-03-05T09:09:48.575Z,16.97
2023-03-05T09:12:57.117Z,15.65
2023-03-05T09:16:08.589Z,14.98
2023-03-05T09:19:17.242Z,14.07
2023-03-05T09:22:25.556Z,18.33
2023-03-05T09:25:40.506Z,14.67
2023-03-05T09:28:42.596Z,14.50
2023-03-05T09:31:58.598Z,16.02
2023-03-05T09:35:00.508Z,16.42
2023-03-05T09:38:15.542Z,16.37
2023-03-05T09:41:35.529Z,16.40
2023-03-05T09:45:08.903Z,13.65
2023-03-05T09:48:28.549Z,13.85
2023-03-05T09:51:40.415Z,22.10
2023-03-05T09:54:53.508Z,16.10
2023-03-05T09:58:14.388Z,12.97
2023-03-05T10:01:27.591Z,14.70
2023-03-05T10:04:46.541Z,16.55
2023-03-05T10:08:07.537Z,15.70
2023-03-05T10:11:34.581Z,13.93
2023-03-05T10:14:43.192Z,15.73
2023-03-05T10:18:09.605Z,15.18
2023-03-05T10:21:28.354Z,13.02
2023-03-05T10:24:55.567Z,14.68
2023-03-05T10:28:09.831Z,19.87
2023-03-05T10:31:35.624Z,15.70
2023-03-05T10:35:03.710Z,13.70
2023-03-05T10:38:41.556Z,13.60
2023-03-05T10:42:09.565Z,15.00
2023-03-05T10:45:24.371Z,13.40
2023-03-05T10:48:55.576Z,13.47
2023-03-05T10:52:23.586Z,14.00
2023-03-05T10:55:25.356Z,14.52
2023-03-05T10:58:40.623Z,12.52
2023-03-05T11:02:01.279Z,13.60
2023-03-05T11:05:43.571Z,14.90
2023-03-05T11:08:51.584Z,12.50
2023-03-05T11:12:15.018Z,12.35
2023-03-05T11:15:33.645Z,18.87
2023-03-05T11:18:41.950Z,16.80
2023-03-05T11:22:16.610Z,17.17
2023-03-05T11:25:31.624Z,14.43
2023-03-05T11:28:56.391Z,16.50
2023-03-05T11:32:23.785Z,13.55
2023-03-05T11:35:32.158Z,13.90
2023-03-05T11:38:59.623Z,18.60
2023-03-05T11:42:23.618Z,13.82
2023-03-05T11:45:39.592Z,13.90
2023-03-05T11:48:45.189Z,15.90
2023-03-05T11:52:14.581Z,14.53
2023-03-05T11:55:41.873Z,16.80
2023-03-05T11:59:08.586Z,16.10
2023-03-05T12:02:23.275Z,18.85
2023-03-05T12:05:40.613Z,12.75
2023-03-05T12:08:54.285Z,14.77
2023-03-05T12:12:14.586Z,13.43
2023-03-05T12:15:45.688Z,11.52
2023-03-05T12:19:13.741Z,12.43
2023-03-05T12:22:30.678Z,11.27
2023-03-05T12:25:54.620Z,12.50
2023-03-05T12:29:03.573Z,12.90
2023-03-05T12:32:23.631Z,10.73
2023-03-05T12:35:35.107Z,13.60
2023-03-05T12:38:50.698Z,15.95
2023-03-05T12:42:05.741Z,9.73
2023-03-05T12:45:30.574Z,11.50
2023-03-05T12:48:50.850Z,10.80
2023-03-05T12:52:01.645Z,11.73
2023-03-05T12:55:23.276Z,10.07
2023-03-05T12:58:46.641Z,9.97
2023-03-05T13:02:06.670Z,8.33
2023-03-05T13:05:27.628Z,8.90
2023-03-05T13:08:43.668Z,11.95
2023-03-05T13:11:55.702Z,12.80
2023-03-05T13:15:07.658Z,11.40
2023-03-05T13:18:28.695Z,10.53
2023-03-05T13:21:37.773Z,9.18
2023-03-05T13:24:46.605Z,9.07
2023-03-05T13:28:03.705Z,9.90
2023-03-05T13:31:22.716Z,11.00
2023-03-05T13:34:46.861Z,10.90
2023-03-05T13:37:56.749Z,15.40
2023-03-05T13:41:24.663Z,11.82
2023-03-05T13:44:34.822Z,9.23
2023-03-05T13:47:43.714Z,10.77
2023-03-05T13:50:56.450Z,11.80
2023-03-05T13:54:05.669Z,9.82
2023-03-05T13:57:34.431Z,9.68
2023-03-05T14:00:49.724Z,11.73
2023-03-05T14:03:59.610Z,12.07
2023-03-05T14:07:34.725Z,13.73
2023-03-05T14:10:45.751Z,13.50
2023-03-05T14:13:55.745Z,10.18
2023-03-05T14:17:30.701Z,10.02
2023-03-05T14:20:48.658Z,9.20
2023-03-05T14:23:57.683Z,9.93
2023-03-05T14:27:11.725Z,12.77
2023-03-05T14:30:22.522Z,10.80
2023-03-05T14:33:36.693Z,11.68
2023-03-05T14:36:55.701Z,16.73
2023-03-05T14:40:13.696Z,12.20
2023-03-05T14:43:15.866Z,13.52
2023-03-05T14:46:30.835Z,11.32
2023-03-05T14:49:32.733Z,13.70
2023-03-05T14:52:47.674Z,14.20
2023-03-05T14:55:58.686Z,14.57
2023-03-05T14:59:09.069Z,11.57
2023-03-05T15:02:22.758Z,8.93
2023-03-05T15:05:32.026Z,11.10
2023-03-05T15:08:46.694Z,9.63
2023-03-05T15:11:56.741Z,9.63
2023-03-05T15:15:06.005Z,10.32
2023-03-05T15:18:22.660Z,10.02
2023-03-05T15:21:31.366Z,11.93
2023-03-05T15:24:39.675Z,13.47
2023-03-05T15:27:48.389Z,14.07
2023-03-05T15:30:58.262Z,11.45
2023-03-05T15:34:14.733Z,10.88
2023-03-05T15:37:16.618Z,10.30
2023-03-05T15:40:32.708Z,10.73
2023-03-05T15:43:41.376Z,8.47
2023-03-05T15:46:55.798Z,9.60
2023-03-05T15:49:57.732Z,8.60
2023-03-05T15:53:12.727Z,9.77
2023-03-05T15:56:27.754Z,9.73
2023-03-05T15:59:30.004Z,9.57
2023-03-05T16:02:44.694Z,13.45
2023-03-05T16:05:46.508Z,9.13
2023-03-05T16:09:08.711Z,9.18
2023-03-05T16:12:27.986Z,9.63
2023-03-05T16:15:46.786Z,10.23
2023-03-05T16:18:55.811Z,9.43
2023-03-05T16:22:10.697Z,9.35
2023-03-05T16:25:12.757Z,10.38
2023-03-05T16:28:28.712Z,8.57
2023-03-05T16:31:40.839Z,8.75
2023-03-05T16:34:49.430Z,12.23
2023-03-05T16:38:03.848Z,8.18
2023-03-05T16:41:12.766Z,9.18
2023-03-05T16:44:21.597Z,11.67
2023-03-05T16:47:37.156Z,10.05
2023-03-05T16:50:51.769Z,8.43
2023-03-05T16:53:55.614Z,8.45
2023-03-05T16:57:10.831Z,7.20
2023-03-05T17:00:13.478Z,6.37
2023-03-05T17:03:27.722Z,10.85
2023-03-05T17:06:38.804Z,5.87
2023-03-05T17:09:53.785Z,7.12
2023-03-05T17:13:08.785Z,6.78
2023-03-05T17:16:12.498Z,7.13
2023-03-05T17:19:34.725Z,8.80
2023-03-05T17:22:37.001Z,9.43
2023-03-05T17:25:52.797Z,7.40
2023-03-05T17:29:00.755Z,6.40
2023-03-05T17:32:15.825Z,6.43
2023-03-05T17:35:20.081Z,6.72
2023-03-05T17:38:35.761Z,6.12
2023-03-05T17:41:37.592Z,6.70
2023-03-05T17:44:53.744Z,7.15
2023-03-05T17:47:56.723Z,7.53
2023-03-05T17:51:16.860Z,7.55
2023-03-05T17:54:25.792Z,6.15
2023-03-05T17:57:35.815Z,7.68
2023-03-05T18:00:44.748Z,6.00
2023-03-05T18:03:53.932Z,7.10
2023-03-05T18:07:01.802Z,5.68
2023-03-05T18:10:11.677Z,12.15
2023-03-05T18:13:19.745Z,9.07
2023-03-05T18:16:41.812Z,7.10
2023-03-05T18:19:57.769Z,6.77
2023-03-05T18:23:06.481Z,8.57
2023-03-05T18:26:14.760Z,8.88
2023-03-05T18:29:29.829Z,9.27
2023-03-05T18:32:31.699Z,8.77
2023-03-05T18:35:47.849Z,6.23
2023-03-05T18:38:49.765Z,8.95
2023-03-05T18:42:04.772Z,10.23
2023-03-05T18:45:13.777Z,6.53
2023-03-05T18:48:29.814Z,8.55
2023-03-05T18:51:38.786Z,7.43
2023-03-05T18:54:53.861Z,6.47
2023-03-05T18:57:56.202Z,7.43
2023-03-05T19:01:11.813Z,6.22
2023-03-05T19:04:20.566Z,10.15
2023-03-05T19:07:35.820Z,6.53
2023-03-05T19:10:44.561Z,6.10
2023-03-05T19:13:54.799Z,6.80
2023-03-05T19:17:09.818Z,6.70
2023-03-05T19:20:25.118Z,8.80
2023-03-05T19:23:33.798Z,6.27
2023-03-05T19:26:43.105Z,7.47
2023-03-05T19:29:58.828Z,7.22
2023-03-05T19:33:13.797Z,7.87
2023-03-05T19:36:15.837Z,8.65
2023-03-05T19:39:30.852Z,6.93
2023-03-05T19:42:40.046Z,6.75
2023-03-05T19:45:54.845Z,11.65
2023-03-05T19:49:04.299Z,10.25
2023-03-05T19:52:13.897Z,6.70
2023-03-05T19:55:28.777Z,6.47
2023-03-05T19:58:37.612Z,7.18
2023-03-05T20:01:45.898Z,7.25
2023-03-05T20:04:55.638Z,8.57
2023-03-05T20:08:03.790Z,9.15
2023-03-05T20:11:21.801Z,4.83
2023-03-05T20:14:30.795Z,8.05
2023-03-05T20:17:45.917Z,5.90
2023-03-05T20:21:07.806Z,8.02
2023-03-05T20:24:14.296Z,7.85
2023-03-05T20:27:28.814Z,5.73
2023-03-05T20:30:30.834Z,7.53
2023-03-05T20:33:45.827Z,6.95
2023-03-05T20:36:54.370Z,7.45
2023-03-05T20:40:02.879Z,8.00
2023-03-05T20:43:17.785Z,8.80
2023-03-05T20:46:29.098Z,8.05
2023-03-05T20:49:43.858Z,9.10
2023-03-05T20:52:51.810Z,9.88
2023-03-05T20:56:00.501Z,10.35
2023-03-05T20:59:11.954Z,13.00
2023-03-05T21:02:20.508Z,11.55
2023-03-05T21:05:33.881Z,9.48
2023-03-05T21:08:42.856Z,11.57
2023-03-05T21:11:50.860Z,10.32
2023-03-05T21:15:05.859Z,11.60
2023-03-05T21:18:07.771Z,10.27
2023-03-05T21:21:29.918Z,12.80
2023-03-05T21:25:08.226Z,9.85
2023-03-05T21:28:22.853Z,12.57
2023-03-05T21:31:24.797Z,11.37
2023-03-05T21:34:39.843Z,13.75
2023-03-05T21:37:48.876Z,11.07
2023-03-05T21:41:04.824Z,10.52
2023-03-05T21:44:19.886Z,11.10
2023-03-05T21:47:21.694Z,11.10
2023-03-05T21:50:36.846Z,11.40
2023-03-05T21:53:38.897Z,12.15
2023-03-05T21:56:54.229Z,12.37
2023-03-05T22:00:03.744Z,12.95
2023-03-05T22:03:18.882Z,10.23
2023-03-05T22:06:27.868Z,10.00
2023-03-05T22:09:36.431Z,12.13
2023-03-05T22:12:59.850Z,13.00
2023-03-05T22:16:09.172Z,10.90
2023-03-05T22:19:25.814Z,10.07
2023-03-05T22:22:27.701Z,9.48
2023-03-05T22:25:42.856Z,11.60
2023-03-05T22:28:51.891Z,11.60
2023-03-05T22:32:06.946Z,10.95
2023-03-05T22:35:12.832Z,9.00
2023-03-05T22:38:27.848Z,11.05
2023-03-05T22:41:36.885Z,10.63
2023-03-05T22:44:45.496Z,12.30
2023-03-05T22:47:55.884Z,14.87
2023-03-05T22:51:04.889Z,13.17
2023-03-05T22:54:12.886Z,12.35
2023-03-05T22:57:27.923Z,12.60
2023-03-05T23:00:29.790Z,9.48
2023-03-05T23:03:46.012Z,11.38
2023-03-05T23:06:53.878Z,11.27
2023-03-05T23:10:14.948Z,11.12
2023-03-05T23:13:16.817Z,12.55
2023-03-05T23:16:31.862Z,9.63
2023-03-05T23:19:40.322Z,11.02
2023-03-05T23:22:56.057Z,12.80
2023-03-05T23:26:10.832Z,13.93
2023-03-05T23:29:42.382Z,10.50
2023-03-05T23:33:00.959Z,11.88
2023-03-05T23:36:02.736Z,11.77
2023-03-05T23:39:17.873Z,10.97
2023-03-05T23:42:25.923Z,7.85
2023-03-05T23:45:35.302Z,10.98
2023-03-05T23:48:44.198Z,9.85
2023-03-05T23:51:52.503Z,10.15
2023-03-05T23:55:00.910Z,11.10
2023-03-05T23:58:10.089Z,10.98
